Glendo, Wyoming
Current Conditions -  °F | °C
As of 5:15 PM on Monday 24 Nov 2014 (Local Time) from KGUR Reporting Station
Scattered Clouds Scattered Clouds  
Wind Chill: 31°   Ceiling: Unl
Heat Index: 39°   Visibility: 10mi
Dew Point: 26°   Wind: 15mph
Humidity: 59%   Direction: 320°NW
Pressure: 30.14"   Gusts: 21mph
Location:  42.5°N, 105.03°W
Report Text: KGUR 250015Z AUTO 32013G18KT 10SM SCT050 SCT065 04/M03 A3014 RMK AO2 T00401033
Loading
Personal Weather Stations






























Interactive Weather Map New forecast layout! Learn more

10-Day Weather Forecast

Advertisements
Track Severe Weather on mobile